sensor_id;sensor_type;location;lat;lon;timestamp;P1;durP1;ratioP1;P2;durP2;ratioP2
77864;SDS011;67061;48.524;9.040;2024-01-16T00:01:19;6.65;;;2.75;;
77864;SDS011;67061;48.524;9.040;2024-01-16T00:03:46;7.30;;;2.80;;
77864;SDS011;67061;48.524;9.040;2024-01-16T00:06:14;5.10;;;2.72;;
77864;SDS011;67061;48.524;9.040;2024-01-16T00:08:41;5.47;;;2.20;;
77864;SDS011;67061;48.524;9.040;2024-01-16T00:11:08;6.72;;;2.78;;
77864;SDS011;67061;48.524;9.040;2024-01-16T00:13:35;6.55;;;2.60;;
77864;SDS011;67061;48.524;9.040;2024-01-16T00:16:02;6.70;;;2.22;;
77864;SDS011;67061;48.524;9.040;2024-01-16T00:18:29;5.68;;;2.30;;
77864;SDS011;67061;48.524;9.040;2024-01-16T00:20:57;4.55;;;2.15;;
77864;SDS011;67061;48.524;9.040;2024-01-16T00:23:25;7.60;;;2.63;;
77864;SDS011;67061;48.524;9.040;2024-01-16T00:25:52;6.20;;;2.35;;
77864;SDS011;67061;48.524;9.040;2024-01-16T00:28:19;6.50;;;2.53;;
77864;SDS011;67061;48.524;9.040;2024-01-16T00:30:46;5.68;;;2.00;;
77864;SDS011;67061;48.524;9.040;2024-01-16T00:33:13;5.20;;;2.22;;
77864;SDS011;67061;48.524;9.040;2024-01-16T00:35:40;4.00;;;2.08;;
77864;SDS011;67061;48.524;9.040;2024-01-16T00:38:07;5.30;;;2.10;;
77864;SDS011;67061;48.524;9.040;2024-01-16T00:40:35;6.28;;;2.10;;
77864;SDS011;67061;48.524;9.040;2024-01-16T00:43:02;6.25;;;2.67;;
77864;SDS011;67061;48.524;9.040;2024-01-16T00:45:30;4.15;;;1.65;;
77864;SDS011;67061;48.524;9.040;2024-01-16T00:47:57;5.78;;;2.88;;
77864;SDS011;67061;48.524;9.040;2024-01-16T00:50:23;5.45;;;2.92;;
77864;SDS011;67061;48.524;9.040;2024-01-16T00:52:50;5.03;;;2.10;;
77864;SDS011;67061;48.524;9.040;2024-01-16T00:55:17;6.78;;;2.13;;
77864;SDS011;67061;48.524;9.040;2024-01-16T00:57:46;5.13;;;2.53;;
77864;SDS011;67061;48.524;9.040;2024-01-16T01:00:13;6.45;;;2.63;;
77864;SDS011;67061;48.524;9.040;2024-01-16T01:02:40;4.97;;;2.38;;
77864;SDS011;67061;48.524;9.040;2024-01-16T01:05:07;4.65;;;2.28;;
77864;SDS011;67061;48.524;9.040;2024-01-16T01:07:34;4.55;;;2.38;;
77864;SDS011;67061;48.524;9.040;2024-01-16T01:10:02;5.32;;;2.20;;
77864;SDS011;67061;48.524;9.040;2024-01-16T01:12:29;5.15;;;2.25;;
77864;SDS011;67061;48.524;9.040;2024-01-16T01:14:59;5.05;;;1.98;;
77864;SDS011;67061;48.524;9.040;2024-01-16T01:17:25;5.40;;;1.90;;
77864;SDS011;67061;48.524;9.040;2024-01-16T01:19:52;5.35;;;1.95;;
77864;SDS011;67061;48.524;9.040;2024-01-16T01:22:19;4.70;;;2.28;;
77864;SDS011;67061;48.524;9.040;2024-01-16T01:24:46;5.35;;;2.45;;
77864;SDS011;67061;48.524;9.040;2024-01-16T01:27:13;6.10;;;2.47;;
77864;SDS011;67061;48.524;9.040;2024-01-16T01:29:40;4.75;;;1.95;;
77864;SDS011;67061;48.524;9.040;2024-01-16T01:32:08;10.77;;;5.10;;
77864;SDS011;67061;48.524;9.040;2024-01-16T01:34:35;8.10;;;3.00;;
77864;SDS011;67061;48.524;9.040;2024-01-16T01:37:03;5.57;;;2.40;;
77864;SDS011;67061;48.524;9.040;2024-01-16T01:39:30;6.75;;;3.33;;
77864;SDS011;67061;48.524;9.040;2024-01-16T01:41:57;7.22;;;2.78;;
77864;SDS011;67061;48.524;9.040;2024-01-16T01:44:24;6.22;;;3.95;;
77864;SDS011;67061;48.524;9.040;2024-01-16T01:46:51;7.38;;;2.13;;
77864;SDS011;67061;48.524;9.040;2024-01-16T01:49:22;4.70;;;2.15;;
77864;SDS011;67061;48.524;9.040;2024-01-16T01:51:51;4.82;;;2.38;;
77864;SDS011;67061;48.524;9.040;2024-01-16T01:54:18;4.70;;;2.55;;
77864;SDS011;67061;48.524;9.040;2024-01-16T01:56:47;4.93;;;2.28;;
77864;SDS011;67061;48.524;9.040;2024-01-16T01:59:15;6.05;;;2.42;;
77864;SDS011;67061;48.524;9.040;2024-01-16T02:01:44;6.15;;;2.30;;
77864;SDS011;67061;48.524;9.040;2024-01-16T02:04:12;4.82;;;2.28;;
77864;SDS011;67061;48.524;9.040;2024-01-16T02:06:41;8.00;;;3.42;;
77864;SDS011;67061;48.524;9.040;2024-01-16T02:09:09;6.00;;;3.03;;
77864;SDS011;67061;48.524;9.040;2024-01-16T02:11:38;6.03;;;2.92;;
77864;SDS011;67061;48.524;9.040;2024-01-16T02:14:05;6.13;;;2.33;;
77864;SDS011;67061;48.524;9.040;2024-01-16T02:16:35;5.70;;;1.90;;
77864;SDS011;67061;48.524;9.040;2024-01-16T02:19:03;7.28;;;2.67;;
77864;SDS011;67061;48.524;9.040;2024-01-16T02:21:32;6.88;;;2.42;;
77864;SDS011;67061;48.524;9.040;2024-01-16T02:24:04;6.13;;;2.55;;
77864;SDS011;67061;48.524;9.040;2024-01-16T02:26:32;4.88;;;2.25;;
77864;SDS011;67061;48.524;9.040;2024-01-16T02:29:00;5.68;;;2.20;;
77864;SDS011;67061;48.524;9.040;2024-01-16T02:31:28;4.75;;;2.05;;
77864;SDS011;67061;48.524;9.040;2024-01-16T02:33:55;7.03;;;2.88;;
77864;SDS011;67061;48.524;9.040;2024-01-16T02:36:23;7.90;;;2.70;;
77864;SDS011;67061;48.524;9.040;2024-01-16T02:38:50;7.68;;;2.30;;
77864;SDS011;67061;48.524;9.040;2024-01-16T02:41:18;6.18;;;2.40;;
77864;SDS011;67061;48.524;9.040;2024-01-16T02:43:45;8.63;;;3.40;;
77864;SDS011;67061;48.524;9.040;2024-01-16T02:46:13;7.47;;;2.97;;
77864;SDS011;67061;48.524;9.040;2024-01-16T02:48:40;6.57;;;3.20;;
77864;SDS011;67061;48.524;9.040;2024-01-16T02:51:07;6.82;;;2.72;;
77864;SDS011;67061;48.524;9.040;2024-01-16T02:53:35;7.07;;;2.45;;
77864;SDS011;67061;48.524;9.040;2024-01-16T02:56:02;5.88;;;2.05;;
77864;SDS011;67061;48.524;9.040;2024-01-16T02:58:30;4.45;;;2.22;;
77864;SDS011;67061;48.524;9.040;2024-01-16T03:00:57;4.45;;;2.05;;
77864;SDS011;67061;48.524;9.040;2024-01-16T03:03:26;5.90;;;2.65;;
77864;SDS011;67061;48.524;9.040;2024-01-16T03:05:53;5.55;;;2.47;;
77864;SDS011;67061;48.524;9.040;2024-01-16T03:08:21;4.90;;;2.47;;
77864;SDS011;67061;48.524;9.040;2024-01-16T03:10:48;4.70;;;2.13;;
77864;SDS011;67061;48.524;9.040;2024-01-16T03:13:15;4.00;;;1.88;;
77864;SDS011;67061;48.524;9.040;2024-01-16T03:15:44;5.53;;;2.10;;
77864;SDS011;67061;48.524;9.040;2024-01-16T03:18:11;5.75;;;2.38;;
77864;SDS011;67061;48.524;9.040;2024-01-16T03:20:38;4.72;;;2.15;;
77864;SDS011;67061;48.524;9.040;2024-01-16T03:23:04;4.47;;;2.70;;
77864;SDS011;67061;48.524;9.040;2024-01-16T03:25:31;4.68;;;1.83;;
77864;SDS011;67061;48.524;9.040;2024-01-16T03:28:03;5.07;;;2.40;;
77864;SDS011;67061;48.524;9.040;2024-01-16T03:30:33;5.10;;;2.22;;
77864;SDS011;67061;48.524;9.040;2024-01-16T03:33:02;5.57;;;2.03;;
77864;SDS011;67061;48.524;9.040;2024-01-16T03:37:56;4.75;;;1.85;;
77864;SDS011;67061;48.524;9.040;2024-01-16T03:40:23;6.63;;;2.40;;
77864;SDS011;67061;48.524;9.040;2024-01-16T03:42:50;6.25;;;2.72;;
77864;SDS011;67061;48.524;9.040;2024-01-16T03:45:17;4.93;;;1.95;;
77864;SDS011;67061;48.524;9.040;2024-01-16T03:47:44;5.00;;;2.17;;
77864;SDS011;67061;48.524;9.040;2024-01-16T03:50:12;6.25;;;2.38;;
77864;SDS011;67061;48.524;9.040;2024-01-16T03:52:40;5.68;;;2.38;;
77864;SDS011;67061;48.524;9.040;2024-01-16T03:55:07;6.97;;;3.22;;
77864;SDS011;67061;48.524;9.040;2024-01-16T03:57:34;6.38;;;2.40;;
77864;SDS011;67061;48.524;9.040;2024-01-16T04:00:01;5.97;;;2.20;;
77864;SDS011;67061;48.524;9.040;2024-01-16T04:02:30;5.57;;;2.60;;
77864;SDS011;67061;48.524;9.040;2024-01-16T04:04:57;6.38;;;2.72;;
77864;SDS011;67061;48.524;9.040;2024-01-16T04:07:25;5.90;;;2.15;;
77864;SDS011;67061;48.524;9.040;2024-01-16T04:09:52;4.53;;;2.10;;
77864;SDS011;67061;48.524;9.040;2024-01-16T04:12:19;6.88;;;2.97;;
77864;SDS011;67061;48.524;9.040;2024-01-16T04:14:46;5.32;;;2.38;;
77864;SDS011;67061;48.524;9.040;2024-01-16T04:17:13;6.05;;;2.35;;
77864;SDS011;67061;48.524;9.040;2024-01-16T04:19:40;5.35;;;2.53;;
77864;SDS011;67061;48.524;9.040;2024-01-16T04:22:07;4.60;;;1.92;;
77864;SDS011;67061;48.524;9.040;2024-01-16T04:24:35;4.65;;;2.15;;
77864;SDS011;67061;48.524;9.040;2024-01-16T04:27:02;7.53;;;2.30;;
77864;SDS011;67061;48.524;9.040;2024-01-16T04:29:30;6.20;;;3.65;;
77864;SDS011;67061;48.524;9.040;2024-01-16T04:31:56;5.22;;;2.20;;
77864;SDS011;67061;48.524;9.040;2024-01-16T04:34:23;4.35;;;2.58;;
77864;SDS011;67061;48.524;9.040;2024-01-16T04:36:50;5.75;;;2.90;;
77864;SDS011;67061;48.524;9.040;2024-01-16T04:39:17;6.20;;;2.83;;
77864;SDS011;67061;48.524;9.040;2024-01-16T04:41:45;5.80;;;2.47;;
77864;SDS011;67061;48.524;9.040;2024-01-16T04:44:12;5.18;;;3.55;;
77864;SDS011;67061;48.524;9.040;2024-01-16T04:46:39;5.53;;;2.38;;
77864;SDS011;67061;48.524;9.040;2024-01-16T04:49:06;6.32;;;3.55;;
77864;SDS011;67061;48.524;9.040;2024-01-16T04:51:33;4.60;;;2.45;;
77864;SDS011;67061;48.524;9.040;2024-01-16T04:54:00;7.38;;;2.40;;
77864;SDS011;67061;48.524;9.040;2024-01-16T04:56:27;5.70;;;2.38;;
77864;SDS011;67061;48.524;9.040;2024-01-16T04:58:55;6.85;;;1.83;;
77864;SDS011;67061;48.524;9.040;2024-01-16T05:01:22;8.55;;;2.83;;
77864;SDS011;67061;48.524;9.040;2024-01-16T05:03:50;5.53;;;2.60;;
77864;SDS011;67061;48.524;9.040;2024-01-16T05:06:17;7.35;;;2.42;;
77864;SDS011;67061;48.524;9.040;2024-01-16T05:08:44;6.13;;;2.65;;
77864;SDS011;67061;48.524;9.040;2024-01-16T05:11:11;5.78;;;2.13;;
77864;SDS011;67061;48.524;9.040;2024-01-16T05:13:38;6.72;;;2.00;;
77864;SDS011;67061;48.524;9.040;2024-01-16T05:16:06;5.15;;;1.95;;
77864;SDS011;67061;48.524;9.040;2024-01-16T05:18:33;5.88;;;1.58;;
77864;SDS011;67061;48.524;9.040;2024-01-16T05:21:00;5.55;;;2.80;;
77864;SDS011;67061;48.524;9.040;2024-01-16T05:23:27;4.47;;;1.70;;
77864;SDS011;67061;48.524;9.040;2024-01-16T05:25:54;5.57;;;2.15;;
77864;SDS011;67061;48.524;9.040;2024-01-16T05:28:21;5.07;;;2.03;;
77864;SDS011;67061;48.524;9.040;2024-01-16T05:30:48;4.47;;;2.17;;
77864;SDS011;67061;48.524;9.040;2024-01-16T05:33:16;5.32;;;2.47;;
77864;SDS011;67061;48.524;9.040;2024-01-16T05:35:43;6.57;;;3.13;;
77864;SDS011;67061;48.524;9.040;2024-01-16T05:38:10;7.55;;;2.40;;
77864;SDS011;67061;48.524;9.040;2024-01-16T05:40:38;8.75;;;2.40;;
77864;SDS011;67061;48.524;9.040;2024-01-16T05:43:05;5.55;;;2.63;;
77864;SDS011;67061;48.524;9.040;2024-01-16T05:45:32;5.90;;;1.90;;
77864;SDS011;67061;48.524;9.040;2024-01-16T05:47:59;6.40;;;4.15;;
77864;SDS011;67061;48.524;9.040;2024-01-16T05:50:27;7.60;;;2.60;;
77864;SDS011;67061;48.524;9.040;2024-01-16T05:52:54;6.70;;;4.13;;
77864;SDS011;67061;48.524;9.040;2024-01-16T05:55:20;8.98;;;2.63;;
77864;SDS011;67061;48.524;9.040;2024-01-16T05:57:47;5.47;;;1.83;;
77864;SDS011;67061;48.524;9.040;2024-01-16T06:00:14;5.13;;;2.22;;
77864;SDS011;67061;48.524;9.040;2024-01-16T06:02:43;8.38;;;3.10;;
77864;SDS011;67061;48.524;9.040;2024-01-16T06:05:10;8.00;;;2.55;;
77864;SDS011;67061;48.524;9.040;2024-01-16T06:07:38;7.18;;;3.00;;
77864;SDS011;67061;48.524;9.040;2024-01-16T06:10:06;5.50;;;2.17;;
77864;SDS011;67061;48.524;9.040;2024-01-16T06:12:34;5.28;;;2.22;;
77864;SDS011;67061;48.524;9.040;2024-01-16T06:15:02;6.18;;;2.05;;
77864;SDS011;67061;48.524;9.040;2024-01-16T06:17:29;6.95;;;2.10;;
77864;SDS011;67061;48.524;9.040;2024-01-16T06:19:57;5.38;;;2.47;;
77864;SDS011;67061;48.524;9.040;2024-01-16T06:22:24;5.72;;;2.60;;
77864;SDS011;67061;48.524;9.040;2024-01-16T06:24:52;5.00;;;2.60;;
77864;SDS011;67061;48.524;9.040;2024-01-16T06:27:19;5.20;;;2.40;;
77864;SDS011;67061;48.524;9.040;2024-01-16T06:29:46;6.95;;;2.45;;
77864;SDS011;67061;48.524;9.040;2024-01-16T06:32:13;6.05;;;2.17;;
77864;SDS011;67061;48.524;9.040;2024-01-16T06:34:39;7.63;;;3.55;;
77864;SDS011;67061;48.524;9.040;2024-01-16T06:37:06;5.22;;;2.25;;
77864;SDS011;67061;48.524;9.040;2024-01-16T06:39:33;6.68;;;3.05;;
77864;SDS011;67061;48.524;9.040;2024-01-16T06:42:02;6.20;;;3.28;;
77864;SDS011;67061;48.524;9.040;2024-01-16T06:44:30;7.00;;;3.17;;
77864;SDS011;67061;48.524;9.040;2024-01-16T06:46:57;8.77;;;2.92;;
77864;SDS011;67061;48.524;9.040;2024-01-16T06:49:24;7.93;;;4.00;;
77864;SDS011;67061;48.524;9.040;2024-01-16T06:51:52;7.20;;;3.03;;
77864;SDS011;67061;48.524;9.040;2024-01-16T06:54:19;7.43;;;3.55;;
77864;SDS011;67061;48.524;9.040;2024-01-16T06:56:48;9.30;;;3.67;;
77864;SDS011;67061;48.524;9.040;2024-01-16T06:59:17;8.13;;;3.38;;
77864;SDS011;67061;48.524;9.040;2024-01-16T07:01:46;7.18;;;3.10;;
77864;SDS011;67061;48.524;9.040;2024-01-16T07:04:13;7.25;;;3.08;;
77864;SDS011;67061;48.524;9.040;2024-01-16T07:06:40;8.05;;;3.03;;
77864;SDS011;67061;48.524;9.040;2024-01-16T07:09:08;8.75;;;3.10;;
77864;SDS011;67061;48.524;9.040;2024-01-16T07:11:37;9.23;;;2.95;;
77864;SDS011;67061;48.524;9.040;2024-01-16T07:14:07;9.65;;;3.25;;
77864;SDS011;67061;48.524;9.040;2024-01-16T07:16:36;6.07;;;2.95;;
77864;SDS011;67061;48.524;9.040;2024-01-16T07:19:03;7.03;;;3.33;;
77864;SDS011;67061;48.524;9.040;2024-01-16T07:21:30;6.97;;;2.92;;
77864;SDS011;67061;48.524;9.040;2024-01-16T07:23:57;9.65;;;3.17;;
77864;SDS011;67061;48.524;9.040;2024-01-16T07:26:24;10.95;;;3.70;;
77864;SDS011;67061;48.524;9.040;2024-01-16T07:28:51;9.60;;;3.83;;
77864;SDS011;67061;48.524;9.040;2024-01-16T07:31:18;7.22;;;2.90;;
77864;SDS011;67061;48.524;9.040;2024-01-16T07:33:46;7.63;;;3.60;;
77864;SDS011;67061;48.524;9.040;2024-01-16T07:36:13;8.23;;;3.58;;
77864;SDS011;67061;48.524;9.040;2024-01-16T07:38:40;10.80;;;5.38;;
77864;SDS011;67061;48.524;9.040;2024-01-16T07:41:07;7.25;;;3.67;;
77864;SDS011;67061;48.524;9.040;2024-01-16T07:43:34;9.32;;;3.88;;
77864;SDS011;67061;48.524;9.040;2024-01-16T07:46:02;8.02;;;4.03;;
77864;SDS011;67061;48.524;9.040;2024-01-16T07:48:29;12.82;;;5.00;;
77864;SDS011;67061;48.524;9.040;2024-01-16T07:50:58;8.55;;;5.65;;
77864;SDS011;67061;48.524;9.040;2024-01-16T07:53:25;8.73;;;5.07;;
77864;SDS011;67061;48.524;9.040;2024-01-16T07:55:53;6.90;;;3.75;;
77864;SDS011;67061;48.524;9.040;2024-01-16T07:58:20;8.93;;;4.45;;
77864;SDS011;67061;48.524;9.040;2024-01-16T08:00:48;10.73;;;4.40;;
77864;SDS011;67061;48.524;9.040;2024-01-16T08:03:14;11.45;;;4.53;;
77864;SDS011;67061;48.524;9.040;2024-01-16T08:05:41;8.77;;;3.33;;
77864;SDS011;67061;48.524;9.040;2024-01-16T08:08:10;8.40;;;3.55;;
77864;SDS011;67061;48.524;9.040;2024-01-16T08:10:37;9.05;;;4.40;;
77864;SDS011;67061;48.524;9.040;2024-01-16T08:13:04;8.52;;;3.97;;
77864;SDS011;67061;48.524;9.040;2024-01-16T08:15:30;10.75;;;4.15;;
77864;SDS011;67061;48.524;9.040;2024-01-16T08:17:57;8.98;;;3.85;;
77864;SDS011;67061;48.524;9.040;2024-01-16T08:20:24;8.45;;;4.00;;
77864;SDS011;67061;48.524;9.040;2024-01-16T08:22:51;12.85;;;4.72;;
77864;SDS011;67061;48.524;9.040;2024-01-16T08:25:20;10.90;;;6.20;;
77864;SDS011;67061;48.524;9.040;2024-01-16T08:27:47;11.18;;;4.93;;
77864;SDS011;67061;48.524;9.040;2024-01-16T08:30:14;8.05;;;3.75;;
77864;SDS011;67061;48.524;9.040;2024-01-16T08:32:41;12.52;;;5.05;;
77864;SDS011;67061;48.524;9.040;2024-01-16T08:35:08;12.43;;;4.82;;
77864;SDS011;67061;48.524;9.040;2024-01-16T08:37:35;10.00;;;4.57;;
77864;SDS011;67061;48.524;9.040;2024-01-16T08:40:02;12.23;;;4.78;;
77864;SDS011;67061;48.524;9.040;2024-01-16T08:42:31;6.72;;;3.15;;
77864;SDS011;67061;48.524;9.040;2024-01-16T08:44:58;8.50;;;4.65;;
77864;SDS011;67061;48.524;9.040;2024-01-16T08:47:25;9.73;;;4.25;;
77864;SDS011;67061;48.524;9.040;2024-01-16T08:49:52;9.38;;;4.22;;
77864;SDS011;67061;48.524;9.040;2024-01-16T08:52:19;10.10;;;4.68;;
77864;SDS011;67061;48.524;9.040;2024-01-16T08:54:46;8.25;;;4.30;;
77864;SDS011;67061;48.524;9.040;2024-01-16T08:57:13;8.85;;;4.40;;
77864;SDS011;67061;48.524;9.040;2024-01-16T08:59:42;8.35;;;3.28;;
77864;SDS011;67061;48.524;9.040;2024-01-16T09:02:09;8.27;;;3.90;;
77864;SDS011;67061;48.524;9.040;2024-01-16T09:04:36;7.65;;;4.13;;
77864;SDS011;67061;48.524;9.040;2024-01-16T09:07:03;8.10;;;4.00;;
77864;SDS011;67061;48.524;9.040;2024-01-16T09:09:30;7.25;;;3.00;;
77864;SDS011;67061;48.524;9.040;2024-01-16T09:11:57;7.60;;;3.30;;
77864;SDS011;67061;48.524;9.040;2024-01-16T09:14:24;7.85;;;3.67;;
77864;SDS011;67061;48.524;9.040;2024-01-16T09:16:53;6.85;;;3.08;;
77864;SDS011;67061;48.524;9.040;2024-01-16T09:19:20;6.18;;;2.85;;
77864;SDS011;67061;48.524;9.040;2024-01-16T09:21:47;5.63;;;2.85;;
77864;SDS011;67061;48.524;9.040;2024-01-16T09:24:14;6.43;;;2.90;;
77864;SDS011;67061;48.524;9.040;2024-01-16T09:26:42;6.75;;;2.75;;
77864;SDS011;67061;48.524;9.040;2024-01-16T09:29:09;6.97;;;2.72;;
77864;SDS011;67061;48.524;9.040;2024-01-16T09:31:36;6.15;;;2.72;;
77864;SDS011;67061;48.524;9.040;2024-01-16T09:34:05;5.65;;;2.88;;
77864;SDS011;67061;48.524;9.040;2024-01-16T09:36:31;7.60;;;2.67;;
77864;SDS011;67061;48.524;9.040;2024-01-16T09:39:01;7.20;;;3.33;;
77864;SDS011;67061;48.524;9.040;2024-01-16T09:41:28;6.78;;;3.15;;
77864;SDS011;67061;48.524;9.040;2024-01-16T09:46:24;6.70;;;2.55;;
77864;SDS011;67061;48.524;9.040;2024-01-16T09:48:53;6.75;;;2.67;;
77864;SDS011;67061;48.524;9.040;2024-01-16T09:51:23;7.47;;;3.60;;
77864;SDS011;67061;48.524;9.040;2024-01-16T09:53:49;6.40;;;3.10;;
77864;SDS011;67061;48.524;9.040;2024-01-16T09:56:20;6.63;;;2.88;;
77864;SDS011;67061;48.524;9.040;2024-01-16T09:58:49;7.40;;;3.05;;
77864;SDS011;67061;48.524;9.040;2024-01-16T10:01:21;6.00;;;3.15;;
77864;SDS011;67061;48.524;9.040;2024-01-16T10:03:49;10.02;;;3.15;;
77864;SDS011;67061;48.524;9.040;2024-01-16T10:06:16;6.75;;;2.88;;
77864;SDS011;67061;48.524;9.040;2024-01-16T10:08:47;7.95;;;3.42;;
77864;SDS011;67061;48.524;9.040;2024-01-16T10:11:14;6.43;;;2.80;;
77864;SDS011;67061;48.524;9.040;2024-01-16T10:13:41;7.60;;;3.15;;
77864;SDS011;67061;48.524;9.040;2024-01-16T10:16:10;5.65;;;2.75;;
77864;SDS011;67061;48.524;9.040;2024-01-16T10:18:37;5.18;;;2.63;;
77864;SDS011;67061;48.524;9.040;2024-01-16T10:21:04;9.68;;;3.28;;
77864;SDS011;67061;48.524;9.040;2024-01-16T10:23:32;7.05;;;2.80;;
77864;SDS011;67061;48.524;9.040;2024-01-16T10:26:07;7.57;;;3.65;;
77864;SDS011;67061;48.524;9.040;2024-01-16T10:28:34;5.72;;;3.00;;
77864;SDS011;67061;48.524;9.040;2024-01-16T10:31:02;7.35;;;2.75;;
77864;SDS011;67061;48.524;9.040;2024-01-16T10:33:29;7.72;;;3.05;;
77864;SDS011;67061;48.524;9.040;2024-01-16T10:36:09;11.30;;;2.95;;
77864;SDS011;67061;48.524;9.040;2024-01-16T10:38:37;6.72;;;3.15;;
77864;SDS011;67061;48.524;9.040;2024-01-16T10:41:08;8.48;;;3.63;;
77864;SDS011;67061;48.524;9.040;2024-01-16T10:43:35;8.80;;;3.42;;
77864;SDS011;67061;48.524;9.040;2024-01-16T10:46:10;8.05;;;3.50;;
77864;SDS011;67061;48.524;9.040;2024-01-16T10:48:38;8.73;;;3.13;;
77864;SDS011;67061;48.524;9.040;2024-01-16T10:51:06;9.18;;;3.75;;
77864;SDS011;67061;48.524;9.040;2024-01-16T10:53:34;6.63;;;2.95;;
77864;SDS011;67061;48.524;9.040;2024-01-16T10:56:01;8.02;;;3.35;;
77864;SDS011;67061;48.524;9.040;2024-01-16T10:58:34;8.07;;;3.38;;
77864;SDS011;67061;48.524;9.040;2024-01-16T11:01:05;5.88;;;3.17;;
77864;SDS011;67061;48.524;9.040;2024-01-16T11:03:38;7.03;;;2.42;;
77864;SDS011;67061;48.524;9.040;2024-01-16T11:06:09;7.32;;;3.35;;
77864;SDS011;67061;48.524;9.040;2024-01-16T11:08:38;6.10;;;3.40;;
77864;SDS011;67061;48.524;9.040;2024-01-16T11:11:06;7.70;;;3.50;;
77864;SDS011;67061;48.524;9.040;2024-01-16T11:13:35;7.35;;;2.67;;
77864;SDS011;67061;48.524;9.040;2024-01-16T11:16:03;8.60;;;4.15;;
77864;SDS011;67061;48.524;9.040;2024-01-16T11:18:32;5.95;;;3.78;;
77864;SDS011;67061;48.524;9.040;2024-01-16T11:21:00;6.50;;;3.38;;
77864;SDS011;67061;48.524;9.040;2024-01-16T11:23:28;8.27;;;4.13;;
77864;SDS011;67061;48.524;9.040;2024-01-16T11:25:55;7.57;;;3.88;;
77864;SDS011;67061;48.524;9.040;2024-01-16T11:28:26;6.57;;;3.00;;
77864;SDS011;67061;48.524;9.040;2024-01-16T11:30:56;8.30;;;3.60;;
77864;SDS011;67061;48.524;9.040;2024-01-16T11:33:42;5.97;;;2.60;;
77864;SDS011;67061;48.524;9.040;2024-01-16T11:39:17;7.18;;;2.88;;
77864;SDS011;67061;48.524;9.040;2024-01-16T11:41:52;7.25;;;3.20;;
77864;SDS011;67061;48.524;9.040;2024-01-16T11:44:39;6.70;;;2.95;;
77864;SDS011;67061;48.524;9.040;2024-01-16T11:47:09;5.57;;;2.50;;
77864;SDS011;67061;48.524;9.040;2024-01-16T11:49:42;7.68;;;2.83;;
77864;SDS011;67061;48.524;9.040;2024-01-16T11:52:09;6.75;;;3.05;;
77864;SDS011;67061;48.524;9.040;2024-01-16T11:54:38;6.10;;;2.85;;
77864;SDS011;67061;48.524;9.040;2024-01-16T12:00:18;6.05;;;2.72;;
77864;SDS011;67061;48.524;9.040;2024-01-16T12:02:51;5.55;;;2.50;;
77864;SDS011;67061;48.524;9.040;2024-01-16T12:05:20;5.57;;;2.78;;
77864;SDS011;67061;48.524;9.040;2024-01-16T12:07:47;6.18;;;2.65;;
77864;SDS011;67061;48.524;9.040;2024-01-16T12:10:15;5.22;;;2.28;;
77864;SDS011;67061;48.524;9.040;2024-01-16T12:12:43;6.63;;;2.47;;
77864;SDS011;67061;48.524;9.040;2024-01-16T12:15:14;4.80;;;2.75;;
77864;SDS011;67061;48.524;9.040;2024-01-16T12:17:56;4.47;;;2.92;;
77864;SDS011;67061;48.524;9.040;2024-01-16T12:20:25;5.60;;;2.25;;
77864;SDS011;67061;48.524;9.040;2024-01-16T12:22:57;4.80;;;1.65;;
77864;SDS011;67061;48.524;9.040;2024-01-16T12:25:25;4.85;;;1.85;;
77864;SDS011;67061;48.524;9.040;2024-01-16T12:27:56;6.30;;;1.60;;
77864;SDS011;67061;48.524;9.040;2024-01-16T12:30:24;6.20;;;2.20;;
77864;SDS011;67061;48.524;9.040;2024-01-16T12:33:03;4.93;;;2.13;;
77864;SDS011;67061;48.524;9.040;2024-01-16T12:35:32;4.07;;;2.03;;
77864;SDS011;67061;48.524;9.040;2024-01-16T12:38:00;4.45;;;3.60;;
77864;SDS011;67061;48.524;9.040;2024-01-16T12:40:28;4.55;;;2.55;;
77864;SDS011;67061;48.524;9.040;2024-01-16T12:42:55;6.20;;;2.33;;
77864;SDS011;67061;48.524;9.040;2024-01-16T12:45:22;5.40;;;2.35;;
77864;SDS011;67061;48.524;9.040;2024-01-16T12:47:50;4.10;;;2.20;;
77864;SDS011;67061;48.524;9.040;2024-01-16T12:50:22;7.07;;;2.10;;
77864;SDS011;67061;48.524;9.040;2024-01-16T12:52:50;5.68;;;2.15;;
77864;SDS011;67061;48.524;9.040;2024-01-16T12:55:27;5.35;;;2.60;;
77864;SDS011;67061;48.524;9.040;2024-01-16T13:00:39;4.75;;;2.25;;
77864;SDS011;67061;48.524;9.040;2024-01-16T13:03:06;4.68;;;1.80;;
77864;SDS011;67061;48.524;9.040;2024-01-16T13:05:35;5.40;;;3.08;;
77864;SDS011;67061;48.524;9.040;2024-01-16T13:08:02;5.18;;;1.70;;
77864;SDS011;67061;48.524;9.040;2024-01-16T13:10:30;8.23;;;1.80;;
77864;SDS011;67061;48.524;9.040;2024-01-16T13:13:13;3.90;;;1.85;;
77864;SDS011;67061;48.524;9.040;2024-01-16T13:15:40;4.03;;;2.30;;
77864;SDS011;67061;48.524;9.040;2024-01-16T13:18:16;4.25;;;1.92;;
77864;SDS011;67061;48.524;9.040;2024-01-16T13:20:45;3.58;;;1.90;;
77864;SDS011;67061;48.524;9.040;2024-01-16T13:23:12;4.75;;;1.65;;
77864;SDS011;67061;48.524;9.040;2024-01-16T13:25:41;3.75;;;2.30;;
77864;SDS011;67061;48.524;9.040;2024-01-16T13:28:09;5.07;;;2.55;;
77864;SDS011;67061;48.524;9.040;2024-01-16T13:30:36;5.20;;;2.33;;
77864;SDS011;67061;48.524;9.040;2024-01-16T13:33:03;4.82;;;2.63;;
77864;SDS011;67061;48.524;9.040;2024-01-16T13:35:30;8.02;;;2.38;;
77864;SDS011;67061;48.524;9.040;2024-01-16T13:38:00;6.25;;;2.47;;
77864;SDS011;67061;48.524;9.040;2024-01-16T13:40:29;5.25;;;2.72;;
77864;SDS011;67061;48.524;9.040;2024-01-16T13:42:56;5.85;;;2.33;;
77864;SDS011;67061;48.524;9.040;2024-01-16T13:45:22;5.35;;;2.78;;
77864;SDS011;67061;48.524;9.040;2024-01-16T13:47:49;5.95;;;2.72;;
77864;SDS011;67061;48.524;9.040;2024-01-16T13:50:16;4.85;;;2.25;;
77864;SDS011;67061;48.524;9.040;2024-01-16T13:52:43;4.45;;;2.17;;
77864;SDS011;67061;48.524;9.040;2024-01-16T13:55:11;6.13;;;2.55;;
77864;SDS011;67061;48.524;9.040;2024-01-16T13:57:39;5.53;;;2.47;;
77864;SDS011;67061;48.524;9.040;2024-01-16T14:00:06;5.57;;;2.20;;
77864;SDS011;67061;48.524;9.040;2024-01-16T14:02:38;7.05;;;2.60;;
77864;SDS011;67061;48.524;9.040;2024-01-16T14:05:07;5.15;;;1.95;;
77864;SDS011;67061;48.524;9.040;2024-01-16T14:07:36;6.13;;;2.70;;
77864;SDS011;67061;48.524;9.040;2024-01-16T14:10:04;4.30;;;2.58;;
77864;SDS011;67061;48.524;9.040;2024-01-16T14:12:36;7.28;;;2.67;;
77864;SDS011;67061;48.524;9.040;2024-01-16T14:15:03;7.13;;;3.08;;
77864;SDS011;67061;48.524;9.040;2024-01-16T14:17:34;5.10;;;2.00;;
77864;SDS011;67061;48.524;9.040;2024-01-16T14:20:01;6.13;;;1.80;;
77864;SDS011;67061;48.524;9.040;2024-01-16T14:22:30;4.88;;;2.53;;
77864;SDS011;67061;48.524;9.040;2024-01-16T14:24:57;6.43;;;2.22;;
77864;SDS011;67061;48.524;9.040;2024-01-16T14:27:24;5.13;;;2.00;;
77864;SDS011;67061;48.524;9.040;2024-01-16T14:29:52;5.32;;;3.10;;
77864;SDS011;67061;48.524;9.040;2024-01-16T14:32:19;5.00;;;2.05;;
77864;SDS011;67061;48.524;9.040;2024-01-16T14:34:46;5.20;;;2.90;;
77864;SDS011;67061;48.524;9.040;2024-01-16T14:37:13;6.13;;;2.55;;
77864;SDS011;67061;48.524;9.040;2024-01-16T14:39:42;7.78;;;2.15;;
77864;SDS011;67061;48.524;9.040;2024-01-16T14:42:09;6.97;;;2.25;;
77864;SDS011;67061;48.524;9.040;2024-01-16T14:44:36;5.82;;;1.95;;
77864;SDS011;67061;48.524;9.040;2024-01-16T14:47:04;7.70;;;2.53;;
77864;SDS011;67061;48.524;9.040;2024-01-16T14:51:59;5.05;;;1.83;;
77864;SDS011;67061;48.524;9.040;2024-01-16T14:54:26;4.68;;;1.85;;
77864;SDS011;67061;48.524;9.040;2024-01-16T14:56:54;4.90;;;2.22;;
77864;SDS011;67061;48.524;9.040;2024-01-16T14:59:20;5.63;;;2.13;;
77864;SDS011;67061;48.524;9.040;2024-01-16T15:01:48;7.60;;;2.35;;
77864;SDS011;67061;48.524;9.040;2024-01-16T15:04:18;6.18;;;2.20;;
77864;SDS011;67061;48.524;9.040;2024-01-16T15:06:45;6.45;;;2.35;;
77864;SDS011;67061;48.524;9.040;2024-01-16T15:09:12;7.90;;;2.20;;